sensor_id;sensor_type;location;lat;lon;timestamp;P1;durP1;ratioP1;P2;durP2;ratioP2
38783;SDS011;24531;45.502;12.238;2023-04-01T00:00:57;41.83;;;26.13;;
38783;SDS011;24531;45.502;12.238;2023-04-01T00:03:24;37.20;;;24.70;;
38783;SDS011;24531;45.502;12.238;2023-04-01T00:05:52;42.42;;;26.13;;
38783;SDS011;24531;45.502;12.238;2023-04-01T00:08:22;41.80;;;26.85;;
38783;SDS011;24531;45.502;12.238;2023-04-01T00:10:48;38.13;;;25.67;;
38783;SDS011;24531;45.502;12.238;2023-04-01T00:13:14;42.92;;;26.48;;
38783;SDS011;24531;45.502;12.238;2023-04-01T00:15:41;36.25;;;26.08;;
38783;SDS011;24531;45.502;12.238;2023-04-01T00:18:06;36.92;;;25.27;;
38783;SDS011;24531;45.502;12.238;2023-04-01T00:20:32;40.42;;;25.73;;
38783;SDS011;24531;45.502;12.238;2023-04-01T00:22:58;36.80;;;26.23;;
38783;SDS011;24531;45.502;12.238;2023-04-01T00:25:24;43.45;;;26.90;;
38783;SDS011;24531;45.502;12.238;2023-04-01T00:27:52;39.58;;;26.80;;
38783;SDS011;24531;45.502;12.238;2023-04-01T00:30:17;47.30;;;26.38;;
38783;SDS011;24531;45.502;12.238;2023-04-01T00:32:43;42.75;;;26.48;;
38783;SDS011;24531;45.502;12.238;2023-04-01T00:35:09;41.50;;;26.23;;
38783;SDS011;24531;45.502;12.238;2023-04-01T00:37:36;36.25;;;26.55;;
38783;SDS011;24531;45.502;12.238;2023-04-01T00:40:02;43.45;;;27.95;;
38783;SDS011;24531;45.502;12.238;2023-04-01T00:42:30;48.08;;;27.77;;
38783;SDS011;24531;45.502;12.238;2023-04-01T00:44:56;43.53;;;29.02;;
38783;SDS011;24531;45.502;12.238;2023-04-01T00:47:22;37.95;;;26.25;;
38783;SDS011;24531;45.502;12.238;2023-04-01T00:49:51;41.50;;;27.15;;
38783;SDS011;24531;45.502;12.238;2023-04-01T00:52:19;46.92;;;29.98;;
38783;SDS011;24531;45.502;12.238;2023-04-01T00:54:48;41.45;;;27.30;;
38783;SDS011;24531;45.502;12.238;2023-04-01T00:57:19;46.70;;;26.73;;
38783;SDS011;24531;45.502;12.238;2023-04-01T00:59:50;45.63;;;25.77;;
38783;SDS011;24531;45.502;12.238;2023-04-01T01:02:25;42.35;;;27.70;;
38783;SDS011;24531;45.502;12.238;2023-04-01T01:04:51;42.90;;;27.17;;
38783;SDS011;24531;45.502;12.238;2023-04-01T01:07:35;46.83;;;30.85;;
38783;SDS011;24531;45.502;12.238;2023-04-01T01:10:16;47.13;;;28.38;;
38783;SDS011;24531;45.502;12.238;2023-04-01T01:15:35;47.83;;;28.10;;
38783;SDS011;24531;45.502;12.238;2023-04-01T01:18:03;52.67;;;29.80;;
38783;SDS011;24531;45.502;12.238;2023-04-01T01:20:47;43.35;;;29.80;;
38783;SDS011;24531;45.502;12.238;2023-04-01T01:23:33;44.03;;;30.13;;
38783;SDS011;24531;45.502;12.238;2023-04-01T01:26:31;39.70;;;27.30;;
38783;SDS011;24531;45.502;12.238;2023-04-01T01:37:15;41.58;;;27.45;;
38783;SDS011;24531;45.502;12.238;2023-04-01T01:39:44;45.33;;;28.13;;
38783;SDS011;24531;45.502;12.238;2023-04-01T01:42:15;39.88;;;26.83;;
38783;SDS011;24531;45.502;12.238;2023-04-01T01:44:43;38.00;;;27.45;;
38783;SDS011;24531;45.502;12.238;2023-04-01T01:47:12;36.38;;;27.88;;
38783;SDS011;24531;45.502;12.238;2023-04-01T01:49:40;36.88;;;26.38;;
38783;SDS011;24531;45.502;12.238;2023-04-01T01:52:08;39.63;;;27.02;;
38783;SDS011;24531;45.502;12.238;2023-04-01T01:54:33;38.33;;;26.17;;
38783;SDS011;24531;45.502;12.238;2023-04-01T01:57:08;42.17;;;26.58;;
38783;SDS011;24531;45.502;12.238;2023-04-01T01:59:36;39.08;;;26.52;;
38783;SDS011;24531;45.502;12.238;2023-04-01T02:02:04;32.72;;;24.58;;
38783;SDS011;24531;45.502;12.238;2023-04-01T02:04:36;36.55;;;25.25;;
38783;SDS011;24531;45.502;12.238;2023-04-01T02:07:04;38.15;;;24.95;;
38783;SDS011;24531;45.502;12.238;2023-04-01T02:09:36;34.28;;;24.23;;
38783;SDS011;24531;45.502;12.238;2023-04-01T02:12:06;42.20;;;24.77;;
38783;SDS011;24531;45.502;12.238;2023-04-01T02:14:42;33.40;;;23.40;;
38783;SDS011;24531;45.502;12.238;2023-04-01T02:17:14;37.88;;;23.58;;
38783;SDS011;24531;45.502;12.238;2023-04-01T02:19:45;31.60;;;23.33;;
38783;SDS011;24531;45.502;12.238;2023-04-01T02:22:29;37.10;;;23.50;;
38783;SDS011;24531;45.502;12.238;2023-04-01T02:24:59;33.30;;;22.45;;
38783;SDS011;24531;45.502;12.238;2023-04-01T02:27:28;30.17;;;21.55;;
38783;SDS011;24531;45.502;12.238;2023-04-01T02:29:55;32.00;;;21.67;;
38783;SDS011;24531;45.502;12.238;2023-04-01T02:32:20;26.73;;;20.38;;
38783;SDS011;24531;45.502;12.238;2023-04-01T02:34:47;30.95;;;21.50;;
38783;SDS011;24531;45.502;12.238;2023-04-01T02:37:13;33.78;;;22.05;;
38783;SDS011;24531;45.502;12.238;2023-04-01T02:39:40;30.40;;;20.95;;
38783;SDS011;24531;45.502;12.238;2023-04-01T02:42:07;32.17;;;22.10;;
38783;SDS011;24531;45.502;12.238;2023-04-01T02:44:33;29.95;;;20.95;;
38783;SDS011;24531;45.502;12.238;2023-04-01T02:46:58;30.88;;;22.10;;
38783;SDS011;24531;45.502;12.238;2023-04-01T02:49:24;33.60;;;22.42;;
38783;SDS011;24531;45.502;12.238;2023-04-01T02:51:49;29.95;;;21.10;;
38783;SDS011;24531;45.502;12.238;2023-04-01T02:54:16;30.45;;;20.98;;
38783;SDS011;24531;45.502;12.238;2023-04-01T02:56:43;26.98;;;19.98;;
38783;SDS011;24531;45.502;12.238;2023-04-01T02:59:09;27.95;;;20.13;;
38783;SDS011;24531;45.502;12.238;2023-04-01T03:01:34;30.55;;;21.10;;
38783;SDS011;24531;45.502;12.238;2023-04-01T03:04:00;30.25;;;21.63;;
38783;SDS011;24531;45.502;12.238;2023-04-01T03:06:26;27.75;;;19.77;;
38783;SDS011;24531;45.502;12.238;2023-04-01T03:08:51;29.27;;;20.50;;
38783;SDS011;24531;45.502;12.238;2023-04-01T03:11:17;30.45;;;19.83;;
38783;SDS011;24531;45.502;12.238;2023-04-01T03:13:43;28.58;;;20.98;;
38783;SDS011;24531;45.502;12.238;2023-04-01T03:16:08;32.53;;;21.63;;
38783;SDS011;24531;45.502;12.238;2023-04-01T03:18:34;28.73;;;21.05;;
38783;SDS011;24531;45.502;12.238;2023-04-01T03:21:16;37.42;;;24.08;;
38783;SDS011;24531;45.502;12.238;2023-04-01T03:23:43;33.25;;;21.05;;
38783;SDS011;24531;45.502;12.238;2023-04-01T03:26:09;36.75;;;21.00;;
38783;SDS011;24531;45.502;12.238;2023-04-01T03:28:35;30.70;;;20.83;;
38783;SDS011;24531;45.502;12.238;2023-04-01T03:31:00;35.60;;;22.02;;
38783;SDS011;24531;45.502;12.238;2023-04-01T03:33:26;30.10;;;21.30;;
38783;SDS011;24531;45.502;12.238;2023-04-01T03:35:51;31.60;;;22.05;;
38783;SDS011;24531;45.502;12.238;2023-04-01T03:38:17;32.03;;;19.90;;
38783;SDS011;24531;45.502;12.238;2023-04-01T03:40:43;31.02;;;20.65;;
38783;SDS011;24531;45.502;12.238;2023-04-01T03:43:10;29.90;;;21.20;;
38783;SDS011;24531;45.502;12.238;2023-04-01T03:45:36;28.85;;;20.38;;
38783;SDS011;24531;45.502;12.238;2023-04-01T03:48:08;32.15;;;21.10;;
38783;SDS011;24531;45.502;12.238;2023-04-01T03:50:34;28.58;;;20.23;;
38783;SDS011;24531;45.502;12.238;2023-04-01T03:53:00;29.77;;;21.58;;
38783;SDS011;24531;45.502;12.238;2023-04-01T03:55:26;30.48;;;21.83;;
38783;SDS011;24531;45.502;12.238;2023-04-01T03:57:51;31.92;;;20.17;;
38783;SDS011;24531;45.502;12.238;2023-04-01T04:00:17;31.38;;;21.27;;
38783;SDS011;24531;45.502;12.238;2023-04-01T04:02:43;29.95;;;20.65;;
38783;SDS011;24531;45.502;12.238;2023-04-01T04:05:09;29.40;;;20.27;;
38783;SDS011;24531;45.502;12.238;2023-04-01T04:07:35;27.92;;;19.63;;
38783;SDS011;24531;45.502;12.238;2023-04-01T04:10:01;28.95;;;19.15;;
38783;SDS011;24531;45.502;12.238;2023-04-01T04:12:26;27.02;;;19.58;;
38783;SDS011;24531;45.502;12.238;2023-04-01T04:14:52;29.70;;;20.50;;
38783;SDS011;24531;45.502;12.238;2023-04-01T04:17:17;28.45;;;20.15;;
38783;SDS011;24531;45.502;12.238;2023-04-01T04:19:43;28.05;;;19.42;;
38783;SDS011;24531;45.502;12.238;2023-04-01T04:22:09;25.70;;;18.05;;
38783;SDS011;24531;45.502;12.238;2023-04-01T04:24:35;24.02;;;18.63;;
38783;SDS011;24531;45.502;12.238;2023-04-01T04:27:01;32.20;;;21.23;;
38783;SDS011;24531;45.502;12.238;2023-04-01T04:29:27;30.65;;;20.67;;
38783;SDS011;24531;45.502;12.238;2023-04-01T04:31:53;26.38;;;19.83;;
38783;SDS011;24531;45.502;12.238;2023-04-01T04:34:19;31.58;;;21.00;;
38783;SDS011;24531;45.502;12.238;2023-04-01T04:36:46;29.92;;;20.55;;
38783;SDS011;24531;45.502;12.238;2023-04-01T04:39:12;27.95;;;19.10;;
38783;SDS011;24531;45.502;12.238;2023-04-01T04:41:37;29.30;;;20.15;;
38783;SDS011;24531;45.502;12.238;2023-04-01T04:44:03;30.52;;;20.77;;
38783;SDS011;24531;45.502;12.238;2023-04-01T04:46:30;29.20;;;20.48;;
38783;SDS011;24531;45.502;12.238;2023-04-01T04:48:56;27.73;;;19.60;;
38783;SDS011;24531;45.502;12.238;2023-04-01T04:51:22;29.70;;;21.35;;
38783;SDS011;24531;45.502;12.238;2023-04-01T04:53:48;28.23;;;19.80;;
38783;SDS011;24531;45.502;12.238;2023-04-01T04:56:17;30.13;;;20.55;;
38783;SDS011;24531;45.502;12.238;2023-04-01T04:58:44;25.65;;;18.67;;
38783;SDS011;24531;45.502;12.238;2023-04-01T05:01:10;28.27;;;20.92;;
38783;SDS011;24531;45.502;12.238;2023-04-01T05:03:38;24.13;;;19.40;;
38783;SDS011;24531;45.502;12.238;2023-04-01T05:06:04;26.88;;;20.60;;
38783;SDS011;24531;45.502;12.238;2023-04-01T05:08:31;27.25;;;19.58;;
38783;SDS011;24531;45.502;12.238;2023-04-01T05:10:58;34.05;;;19.42;;
38783;SDS011;24531;45.502;12.238;2023-04-01T05:13:24;30.15;;;19.85;;
38783;SDS011;24531;45.502;12.238;2023-04-01T05:15:49;28.15;;;19.80;;
38783;SDS011;24531;45.502;12.238;2023-04-01T05:18:15;28.77;;;19.83;;
38783;SDS011;24531;45.502;12.238;2023-04-01T05:20:45;25.67;;;18.85;;
38783;SDS011;24531;45.502;12.238;2023-04-01T05:23:12;25.05;;;18.27;;
38783;SDS011;24531;45.502;12.238;2023-04-01T05:25:38;26.48;;;17.92;;
38783;SDS011;24531;45.502;12.238;2023-04-01T05:28:03;25.88;;;17.92;;
38783;SDS011;24531;45.502;12.238;2023-04-01T05:30:29;24.73;;;17.05;;
38783;SDS011;24531;45.502;12.238;2023-04-01T05:32:55;23.58;;;17.00;;
38783;SDS011;24531;45.502;12.238;2023-04-01T05:35:20;24.05;;;17.25;;
38783;SDS011;24531;45.502;12.238;2023-04-01T05:37:46;23.63;;;16.73;;
38783;SDS011;24531;45.502;12.238;2023-04-01T05:40:11;22.23;;;16.50;;
38783;SDS011;24531;45.502;12.238;2023-04-01T05:42:37;21.67;;;16.38;;
38783;SDS011;24531;45.502;12.238;2023-04-01T05:45:03;32.72;;;16.17;;
38783;SDS011;24531;45.502;12.238;2023-04-01T05:47:29;24.88;;;14.70;;
38783;SDS011;24531;45.502;12.238;2023-04-01T05:49:55;19.10;;;13.70;;
38783;SDS011;24531;45.502;12.238;2023-04-01T05:52:20;21.00;;;14.40;;
38783;SDS011;24531;45.502;12.238;2023-04-01T05:54:46;17.15;;;14.32;;
38783;SDS011;24531;45.502;12.238;2023-04-01T05:57:11;22.10;;;15.88;;
38783;SDS011;24531;45.502;12.238;2023-04-01T05:59:37;18.92;;;13.95;;
38783;SDS011;24531;45.502;12.238;2023-04-01T06:02:03;19.15;;;14.02;;
38783;SDS011;24531;45.502;12.238;2023-04-01T06:04:31;20.42;;;14.80;;
38783;SDS011;24531;45.502;12.238;2023-04-01T06:07:05;22.15;;;16.10;;
38783;SDS011;24531;45.502;12.238;2023-04-01T06:09:38;22.27;;;17.17;;
38783;SDS011;24531;45.502;12.238;2023-04-01T06:20:23;22.02;;;16.20;;
38783;SDS011;24531;45.502;12.238;2023-04-01T06:47:46;21.35;;;14.52;;
38783;SDS011;24531;45.502;12.238;2023-04-01T06:55:44;16.75;;;11.63;;
38783;SDS011;24531;45.502;12.238;2023-04-01T06:58:21;16.85;;;12.05;;
38783;SDS011;24531;45.502;12.238;2023-04-01T07:00:52;15.20;;;9.38;;
38783;SDS011;24531;45.502;12.238;2023-04-01T07:06:02;11.48;;;8.15;;
38783;SDS011;24531;45.502;12.238;2023-04-01T07:08:48;6.22;;;4.32;;
38783;SDS011;24531;45.502;12.238;2023-04-01T07:11:23;6.25;;;4.88;;
38783;SDS011;24531;45.502;12.238;2023-04-01T07:13:53;6.63;;;4.85;;
38783;SDS011;24531;45.502;12.238;2023-04-01T07:16:28;9.90;;;5.95;;
38783;SDS011;24531;45.502;12.238;2023-04-01T07:19:16;8.18;;;6.07;;
38783;SDS011;24531;45.502;12.238;2023-04-01T07:22:36;7.87;;;5.87;;
38783;SDS011;24531;45.502;12.238;2023-04-01T07:24:45;9.02;;;5.80;;
38783;SDS011;24531;45.502;12.238;2023-04-01T07:27:12;6.68;;;4.60;;
38783;SDS011;24531;45.502;12.238;2023-04-01T07:29:39;7.93;;;4.15;;
38783;SDS011;24531;45.502;12.238;2023-04-01T07:32:29;6.63;;;3.72;;
38783;SDS011;24531;45.502;12.238;2023-04-01T07:46:08;6.10;;;4.45;;
38783;SDS011;24531;45.502;12.238;2023-04-01T07:48:39;6.15;;;4.30;;
38783;SDS011;24531;45.502;12.238;2023-04-01T07:51:27;6.00;;;4.68;;
38783;SDS011;24531;45.502;12.238;2023-04-01T07:54:03;5.30;;;3.80;;
38783;SDS011;24531;45.502;12.238;2023-04-01T07:56:35;5.72;;;4.90;;
38783;SDS011;24531;45.502;12.238;2023-04-01T08:07:23;7.20;;;4.55;;
38783;SDS011;24531;45.502;12.238;2023-04-01T08:16:12;6.45;;;3.45;;
38783;SDS011;24531;45.502;12.238;2023-04-01T08:21:35;3.17;;;2.65;;
38783;SDS011;24531;45.502;12.238;2023-04-01T08:24:11;3.88;;;2.40;;
38783;SDS011;24531;45.502;12.238;2023-04-01T08:26:51;2.85;;;2.40;;
38783;SDS011;24531;45.502;12.238;2023-04-01T08:29:21;5.45;;;2.58;;
38783;SDS011;24531;45.502;12.238;2023-04-01T08:31:55;3.22;;;2.55;;
38783;SDS011;24531;45.502;12.238;2023-04-01T08:34:28;4.97;;;2.67;;
38783;SDS011;24531;45.502;12.238;2023-04-01T08:37:10;3.95;;;2.40;;
38783;SDS011;24531;45.502;12.238;2023-04-01T08:39:48;2.90;;;2.40;;
38783;SDS011;24531;45.502;12.238;2023-04-01T09:04:42;3.08;;;2.55;;
38783;SDS011;24531;45.502;12.238;2023-04-01T09:11:08;5.75;;;2.30;;
38783;SDS011;24531;45.502;12.238;2023-04-01T09:22:25;5.47;;;3.10;;
38783;SDS011;24531;45.502;12.238;2023-04-01T09:27:29;4.07;;;2.30;;
38783;SDS011;24531;45.502;12.238;2023-04-01T09:51:57;3.10;;;1.95;;
38783;SDS011;24531;45.502;12.238;2023-04-01T10:22:11;3.55;;;2.78;;
38783;SDS011;24531;45.502;12.238;2023-04-01T10:33:38;3.17;;;2.17;;
38783;SDS011;24531;45.502;12.238;2023-04-01T11:29:19;6.75;;;3.67;;
38783;SDS011;24531;45.502;12.238;2023-04-01T11:35:18;5.45;;;3.97;;
38783;SDS011;24531;45.502;12.238;2023-04-01T11:40:38;8.70;;;5.13;;
38783;SDS011;24531;45.502;12.238;2023-04-01T11:59:17;9.13;;;4.95;;
38783;SDS011;24531;45.502;12.238;2023-04-01T12:05:08;9.07;;;4.63;;
38783;SDS011;24531;45.502;12.238;2023-04-01T12:08:02;9.65;;;5.50;;
38783;SDS011;24531;45.502;12.238;2023-04-01T12:13:28;7.25;;;5.30;;
38783;SDS011;24531;45.502;12.238;2023-04-01T12:18:52;7.60;;;5.03;;
38783;SDS011;24531;45.502;12.238;2023-04-01T12:29:59;10.13;;;4.70;;
38783;SDS011;24531;45.502;12.238;2023-04-01T12:40:40;10.13;;;5.72;;
38783;SDS011;24531;45.502;12.238;2023-04-01T12:51:08;8.57;;;5.03;;
38783;SDS011;24531;45.502;12.238;2023-04-01T13:02:12;8.57;;;4.80;;
38783;SDS011;24531;45.502;12.238;2023-04-01T13:05:01;6.75;;;4.05;;
38783;SDS011;24531;45.502;12.238;2023-04-01T13:13:12;8.18;;;5.20;;
38783;SDS011;24531;45.502;12.238;2023-04-01T13:16:43;7.10;;;4.88;;
38783;SDS011;24531;45.502;12.238;2023-04-01T13:38:30;8.13;;;5.82;;
38783;SDS011;24531;45.502;12.238;2023-04-01T13:44:28;11.63;;;5.85;;
38783;SDS011;24531;45.502;12.238;2023-04-01T13:50:01;8.60;;;5.82;;
38783;SDS011;24531;45.502;12.238;2023-04-01T14:28:40;6.88;;;3.72;;
38783;SDS011;24531;45.502;12.238;2023-04-01T14:37:13;5.97;;;3.20;;
38783;SDS011;24531;45.502;12.238;2023-04-01T14:49:02;8.90;;;4.07;;
38783;SDS011;24531;45.502;12.238;2023-04-01T14:52:04;6.13;;;4.07;;
38783;SDS011;24531;45.502;12.238;2023-04-01T14:54:36;6.47;;;3.65;;
38783;SDS011;24531;45.502;12.238;2023-04-01T14:59:39;8.60;;;4.00;;
38783;SDS011;24531;45.502;12.238;2023-04-01T15:02:34;6.60;;;4.18;;
38783;SDS011;24531;45.502;12.238;2023-04-01T15:16:02;8.43;;;4.15;;
38783;SDS011;24531;45.502;12.238;2023-04-01T15:27:37;6.57;;;3.95;;
38783;SDS011;24531;45.502;12.238;2023-04-01T15:40:58;7.03;;;4.10;;
38783;SDS011;24531;45.502;12.238;2023-04-01T15:43:42;6.60;;;3.80;;
38783;SDS011;24531;45.502;12.238;2023-04-01T15:49:03;6.22;;;3.88;;
38783;SDS011;24531;45.502;12.238;2023-04-01T16:11:52;6.65;;;4.13;;
38783;SDS011;24531;45.502;12.238;2023-04-01T16:19:51;6.90;;;3.97;;
38783;SDS011;24531;45.502;12.238;2023-04-01T16:22:31;7.10;;;4.57;;
38783;SDS011;24531;45.502;12.238;2023-04-01T16:30:46;6.07;;;4.22;;
38783;SDS011;24531;45.502;12.238;2023-04-01T16:33:43;9.95;;;4.47;;
38783;SDS011;24531;45.502;12.238;2023-04-01T16:36:29;11.38;;;5.05;;
38783;SDS011;24531;45.502;12.238;2023-04-01T16:45:06;9.07;;;5.15;;
38783;SDS011;24531;45.502;12.238;2023-04-01T16:48:27;9.57;;;5.97;;
38783;SDS011;24531;45.502;12.238;2023-04-01T16:56:38;9.13;;;5.15;;
38783;SDS011;24531;45.502;12.238;2023-04-01T16:59:15;8.85;;;5.80;;
38783;SDS011;24531;45.502;12.238;2023-04-01T17:01:53;9.35;;;5.30;;
38783;SDS011;24531;45.502;12.238;2023-04-01T17:04:23;10.27;;;6.28;;
38783;SDS011;24531;45.502;12.238;2023-04-01T17:10:06;12.55;;;5.85;;
38783;SDS011;24531;45.502;12.238;2023-04-01T17:15:35;8.13;;;5.70;;
38783;SDS011;24531;45.502;12.238;2023-04-01T17:18:24;7.75;;;5.60;;
38783;SDS011;24531;45.502;12.238;2023-04-01T17:21:18;9.98;;;5.93;;
38783;SDS011;24531;45.502;12.238;2023-04-01T17:24:03;14.40;;;6.82;;
38783;SDS011;24531;45.502;12.238;2023-04-01T17:26:45;9.65;;;6.60;;
38783;SDS011;24531;45.502;12.238;2023-04-01T17:35:17;18.55;;;7.20;;
38783;SDS011;24531;45.502;12.238;2023-04-01T17:51:33;10.35;;;7.05;;
38783;SDS011;24531;45.502;12.238;2023-04-01T17:59:37;14.40;;;9.43;;
38783;SDS011;24531;45.502;12.238;2023-04-01T18:07:42;27.88;;;15.23;;
38783;SDS011;24531;45.502;12.238;2023-04-01T18:10:24;28.85;;;17.02;;
38783;SDS011;24531;45.502;12.238;2023-04-01T18:16:30;49.08;;;23.27;;
38783;SDS011;24531;45.502;12.238;2023-04-01T18:19:01;44.08;;;23.27;;
38783;SDS011;24531;45.502;12.238;2023-04-01T18:21:40;44.05;;;24.38;;
38783;SDS011;24531;45.502;12.238;2023-04-01T18:24:28;49.58;;;28.33;;
38783;SDS011;24531;45.502;12.238;2023-04-01T18:27:15;47.80;;;27.73;;
38783;SDS011;24531;45.502;12.238;2023-04-01T18:29:50;54.83;;;27.58;;
38783;SDS011;24531;45.502;12.238;2023-04-01T18:35:29;55.17;;;28.48;;
38783;SDS011;24531;45.502;12.238;2023-04-01T18:38:31;56.13;;;31.38;;
38783;SDS011;24531;45.502;12.238;2023-04-01T18:41:11;60.10;;;31.63;;
38783;SDS011;24531;45.502;12.238;2023-04-01T18:46:23;58.88;;;32.33;;
38783;SDS011;24531;45.502;12.238;2023-04-01T18:51:36;50.42;;;30.83;;
38783;SDS011;24531;45.502;12.238;2023-04-01T18:54:24;53.97;;;31.58;;
38783;SDS011;24531;45.502;12.238;2023-04-01T18:57:02;59.58;;;30.75;;
38783;SDS011;24531;45.502;12.238;2023-04-01T19:02:22;48.80;;;29.23;;
38783;SDS011;24531;45.502;12.238;2023-04-01T19:04:57;53.67;;;31.30;;
38783;SDS011;24531;45.502;12.238;2023-04-01T19:10:14;51.92;;;31.13;;
38783;SDS011;24531;45.502;12.238;2023-04-01T19:15:32;48.97;;;30.83;;
38783;SDS011;24531;45.502;12.238;2023-04-01T19:23:40;47.90;;;29.65;;
38783;SDS011;24531;45.502;12.238;2023-04-01T19:37:02;50.33;;;28.88;;
38783;SDS011;24531;45.502;12.238;2023-04-01T19:39:45;47.83;;;29.08;;
38783;SDS011;24531;45.502;12.238;2023-04-01T19:44:48;45.22;;;29.50;;
38783;SDS011;24531;45.502;12.238;2023-04-01T19:50:20;43.00;;;27.75;;
38783;SDS011;24531;45.502;12.238;2023-04-01T19:52:49;39.80;;;26.85;;
38783;SDS011;24531;45.502;12.238;2023-04-01T20:00:47;43.60;;;26.73;;
38783;SDS011;24531;45.502;12.238;2023-04-01T20:09:11;39.75;;;25.73;;
38783;SDS011;24531;45.502;12.238;2023-04-01T20:11:58;39.83;;;26.35;;
38783;SDS011;24531;45.502;12.238;2023-04-01T20:14:49;42.28;;;25.77;;
38783;SDS011;24531;45.502;12.238;2023-04-01T20:27:41;48.05;;;27.90;;
38783;SDS011;24531;45.502;12.238;2023-04-01T20:33:01;36.58;;;25.20;;
38783;SDS011;24531;45.502;12.238;2023-04-01T20:44:19;51.15;;;27.60;;
38783;SDS011;24531;45.502;12.238;2023-04-01T20:49:58;52.17;;;30.23;;
38783;SDS011;24531;45.502;12.238;2023-04-01T20:52:49;59.60;;;35.05;;
38783;SDS011;24531;45.502;12.238;2023-04-01T20:55:28;56.50;;;35.00;;
38783;SDS011;24531;45.502;12.238;2023-04-01T20:58:13;56.17;;;33.80;;
38783;SDS011;24531;45.502;12.238;2023-04-01T21:00:58;55.10;;;32.47;;
38783;SDS011;24531;45.502;12.238;2023-04-01T21:06:31;56.10;;;33.30;;
38783;SDS011;24531;45.502;12.238;2023-04-01T21:09:28;50.67;;;33.75;;
38783;SDS011;24531;45.502;12.238;2023-04-01T21:25:27;53.88;;;35.03;;
38783;SDS011;24531;45.502;12.238;2023-04-01T21:31:05;57.95;;;34.83;;
38783;SDS011;24531;45.502;12.238;2023-04-01T21:33:54;57.55;;;34.92;;
38783;SDS011;24531;45.502;12.238;2023-04-01T21:40:11;60.45;;;33.50;;
38783;SDS011;24531;45.502;12.238;2023-04-01T21:45:44;47.70;;;29.83;;
38783;SDS011;24531;45.502;12.238;2023-04-01T22:05:43;39.72;;;25.13;;
38783;SDS011;24531;45.502;12.238;2023-04-01T22:14:09;39.73;;;23.80;;
38783;SDS011;24531;45.502;12.238;2023-04-01T22:16:40;40.20;;;26.77;;
38783;SDS011;24531;45.502;12.238;2023-04-01T22:19:40;38.47;;;24.42;;
38783;SDS011;24531;45.502;12.238;2023-04-01T22:27:58;39.45;;;24.02;;
38783;SDS011;24531;45.502;12.238;2023-04-01T22:30:55;37.65;;;23.52;;
38783;SDS011;24531;45.502;12.238;2023-04-01T22:33:31;41.67;;;24.45;;
38783;SDS011;24531;45.502;12.238;2023-04-01T22:36:06;38.30;;;23.25;;
38783;SDS011;24531;45.502;12.238;2023-04-01T22:47:11;39.10;;;23.52;;
38783;SDS011;24531;45.502;12.238;2023-04-01T22:50:44;34.00;;;22.35;;
38783;SDS011;24531;45.502;12.238;2023-04-01T22:52:47;31.25;;;21.08;;
38783;SDS011;24531;45.502;12.238;2023-04-01T22:55:24;36.47;;;21.92;;
38783;SDS011;24531;45.502;12.238;2023-04-01T22:57:57;34.90;;;22.50;;
38783;SDS011;24531;45.502;12.238;2023-04-01T23:05:52;43.22;;;22.55;;
38783;SDS011;24531;45.502;12.238;2023-04-01T23:11:32;33.05;;;20.90;;
38783;SDS011;24531;45.502;12.238;2023-04-01T23:17:09;38.65;;;22.00;;
38783;SDS011;24531;45.502;12.238;2023-04-01T23:19:54;35.17;;;21.33;;
38783;SDS011;24531;45.502;12.238;2023-04-01T23:22:26;37.30;;;23.52;;
38783;SDS011;24531;45.502;12.238;2023-04-01T23:27:49;35.28;;;20.88;;
38783;SDS011;24531;45.502;12.238;2023-04-01T23:33:20;37.50;;;18.75;;
38783;SDS011;24531;45.502;12.238;2023-04-01T23:35:52;32.67;;;19.70;;
38783;SDS011;24531;45.502;12.238;2023-04-01T23:38:48;36.17;;;22.58;;
38783;SDS011;24531;45.502;12.238;2023-04-01T23:41:27;35.75;;;20.33;;
38783;SDS011;24531;45.502;12.238;2023-04-01T23:44:03;35.97;;;21.73;;
38783;SDS011;24531;45.502;12.238;2023-04-01T23:46:33;34.10;;;20.90;;
38783;SDS011;24531;45.502;12.238;2023-04-01T23:49:00;36.33;;;22.83;;
38783;SDS011;24531;45.502;12.238;2023-04-01T23:51:28;40.67;;;22.50;;
38783;SDS011;24531;45.502;12.238;2023-04-01T23:54:10;38.03;;;22.05;;
38783;SDS011;24531;45.502;12.238;2023-04-01T23:56:50;35.13;;;22.65;;
38783;SDS011;24531;45.502;12.238;2023-04-01T23:59:19;37.67;;;21.02;;
